createdAt,value
2018-09-29T00:00:00.691Z,0.00
2018-09-29T00:01:00.680Z,0.00
2018-09-29T00:02:00.683Z,0.00
2018-09-29T00:03:00.716Z,0.00
2018-09-29T00:04:00.646Z,0.00
2018-09-29T00:05:00.645Z,0.00
2018-09-29T00:06:10.178Z,0.00
2018-09-29T00:07:00.644Z,0.00
2018-09-29T00:08:00.641Z,0.00
2018-09-29T00:09:00.749Z,0.00
2018-09-29T00:10:00.718Z,0.00
2018-09-29T00:11:00.650Z,0.00
2018-09-29T00:12:00.615Z,0.00
2018-09-29T00:13:00.598Z,0.00
2018-09-29T00:14:00.530Z,0.00
2018-09-29T00:15:00.511Z,0.00
2018-09-29T00:16:00.537Z,0.00
2018-09-29T00:17:00.505Z,0.00
2018-09-29T00:18:00.501Z,0.00
2018-09-29T00:19:00.476Z,0.00
2018-09-29T00:20:00.508Z,0.00
2018-09-29T00:21:00.517Z,0.00
2018-09-29T00:22:08.122Z,0.00
2018-09-29T00:23:00.636Z,0.00
2018-09-29T00:24:00.593Z,0.00
2018-09-29T00:25:00.584Z,0.00
2018-09-29T00:26:00.564Z,0.00
2018-09-29T00:27:00.436Z,0.00
2018-09-29T00:28:00.406Z,0.00
2018-09-29T00:29:00.413Z,0.00
2018-09-29T00:30:00.402Z,0.00
2018-09-29T00:31:00.362Z,0.00
2018-09-29T00:32:00.393Z,0.00
2018-09-29T00:33:00.327Z,0.00
2018-09-29T00:34:00.338Z,0.00
2018-09-29T00:35:08.425Z,0.00
2018-09-29T00:36:00.315Z,0.00
2018-09-29T00:37:00.443Z,0.00
2018-09-29T00:38:00.332Z,0.00
2018-09-29T00:39:00.432Z,0.00
2018-09-29T00:40:00.307Z,0.00
2018-09-29T00:41:00.239Z,0.00
2018-09-29T00:42:00.279Z,0.00
2018-09-29T00:43:00.246Z,0.00
2018-09-29T00:44:00.209Z,0.00
2018-09-29T00:45:00.218Z,0.00
2018-09-29T00:46:00.182Z,0.00
2018-09-29T00:47:00.185Z,0.00
2018-09-29T00:48:00.148Z,0.00
2018-09-29T00:49:10.812Z,0.00
2018-09-29T00:50:00.345Z,0.00
2018-09-29T00:51:00.292Z,0.00
2018-09-29T00:52:00.161Z,0.00
2018-09-29T00:53:00.429Z,0.00
2018-09-29T00:54:00.130Z,0.00
2018-09-29T00:55:00.094Z,0.00
2018-09-29T00:56:00.062Z,0.00
2018-09-29T00:57:00.160Z,0.00
2018-09-29T00:58:00.081Z,0.00
2018-09-29T00:59:00.037Z,0.00
2018-09-29T01:00:00.052Z,0.00
2018-09-29T01:01:00.029Z,0.00
2018-09-29T01:02:00.131Z,0.00
2018-09-29T01:03:08.051Z,0.00
2018-09-29T01:04:00.217Z,0.00
2018-09-29T01:05:00.056Z,0.00
2018-09-29T01:06:00.151Z,0.00
2018-09-29T01:07:00.012Z,0.00
2018-09-29T01:07:59.928Z,0.00
2018-09-29T01:09:00.012Z,0.00
2018-09-29T01:09:59.931Z,0.00
2018-09-29T01:10:59.899Z,0.00
2018-09-29T01:11:59.934Z,0.00
2018-09-29T01:12:59.919Z,0.00
2018-09-29T01:13:59.864Z,0.00
2018-09-29T01:14:59.852Z,0.00
2018-09-29T01:15:59.855Z,0.00
2018-09-29T01:17:10.405Z,0.00
2018-09-29T01:17:59.961Z,0.00
2018-09-29T01:19:00.037Z,0.00
2018-09-29T01:19:59.936Z,0.00
2018-09-29T01:20:59.946Z,0.00
2018-09-29T01:21:59.812Z,0.00
2018-09-29T01:22:59.809Z,0.00
2018-09-29T01:23:59.751Z,0.00
2018-09-29T01:24:59.819Z,0.00
2018-09-29T01:25:59.728Z,0.00
2018-09-29T01:26:59.716Z,0.00
2018-09-29T01:27:59.743Z,0.00
2018-09-29T01:28:59.770Z,0.00
2018-09-29T01:29:59.687Z,0.00
2018-09-29T01:31:09.853Z,0.00
2018-09-29T01:31:59.740Z,0.00
2018-09-29T01:32:59.735Z,0.00
2018-09-29T01:33:59.789Z,0.00
2018-09-29T01:34:59.738Z,0.00
2018-09-29T01:35:59.634Z,0.00
2018-09-29T01:36:59.645Z,0.00
2018-09-29T01:37:59.599Z,0.00
2018-09-29T01:38:59.603Z,0.00
2018-09-29T01:39:59.620Z,0.00
2018-09-29T01:40:59.589Z,0.00
2018-09-29T01:41:59.553Z,0.00
2018-09-29T01:42:59.671Z,0.00
2018-09-29T01:43:59.589Z,0.00
2018-09-29T01:45:08.287Z,0.00
2018-09-29T01:45:59.637Z,0.00
2018-09-29T01:46:59.622Z,0.00
2018-09-29T01:47:59.620Z,0.00
2018-09-29T01:48:59.646Z,0.00
2018-09-29T01:49:59.541Z,0.00
2018-09-29T01:50:59.506Z,0.00
2018-09-29T01:51:59.517Z,0.00
2018-09-29T01:52:59.454Z,0.00
2018-09-29T01:53:59.424Z,0.00
2018-09-29T01:54:59.456Z,0.00
2018-09-29T01:55:59.498Z,0.00
2018-09-29T01:56:59.388Z,0.00
2018-09-29T01:57:59.383Z,0.00
2018-09-29T01:58:59.369Z,0.00
2018-09-29T01:59:59.378Z,0.00
2018-09-29T02:01:07.083Z,0.00
2018-09-29T02:01:59.444Z,0.00
2018-09-29T02:02:59.477Z,0.00
2018-09-29T02:03:59.445Z,0.00
2018-09-29T02:04:59.437Z,0.00
2018-09-29T02:05:59.315Z,0.00
2018-09-29T02:06:59.313Z,0.00
2018-09-29T02:07:59.370Z,0.00
2018-09-29T02:08:59.257Z,0.00
2018-09-29T02:09:59.256Z,0.00
2018-09-29T02:10:59.261Z,0.00
2018-09-29T02:11:59.222Z,0.00
2018-09-29T02:12:59.256Z,0.00
2018-09-29T02:13:59.284Z,0.00
2018-09-29T02:14:59.190Z,0.00
2018-09-29T02:15:59.215Z,0.00
2018-09-29T02:16:59.244Z,0.00
2018-09-29T02:17:59.159Z,0.00
2018-09-29T02:18:59.177Z,0.00
2018-09-29T02:19:59.177Z,0.00
2018-09-29T02:20:59.135Z,0.00
2018-09-29T02:21:59.173Z,0.00
2018-09-29T02:22:59.156Z,0.00
2018-09-29T02:23:59.122Z,0.00
2018-09-29T02:24:59.102Z,0.00
2018-09-29T02:25:59.111Z,0.00
2018-09-29T02:26:59.061Z,0.00
2018-09-29T02:27:59.088Z,0.00
2018-09-29T02:28:59.172Z,0.00
2018-09-29T02:29:59.068Z,0.00
2018-09-29T02:30:59.064Z,0.00
2018-09-29T02:31:59.045Z,0.00
2018-09-29T02:32:58.993Z,0.00
2018-09-29T02:33:58.983Z,0.00
2018-09-29T02:35:07.699Z,0.00
2018-09-29T02:35:59.054Z,0.00
2018-09-29T02:36:58.967Z,0.00
2018-09-29T02:37:59.048Z,0.00
2018-09-29T02:38:59.130Z,0.00
2018-09-29T02:39:58.997Z,0.00
2018-09-29T02:40:58.963Z,0.00
2018-09-29T02:41:58.898Z,0.00
2018-09-29T02:42:58.900Z,0.00
2018-09-29T02:43:58.924Z,0.00
2018-09-29T02:44:58.879Z,0.00
2018-09-29T02:45:58.854Z,0.00
2018-09-29T02:46:58.860Z,0.00
2018-09-29T02:48:08.807Z,0.00
2018-09-29T02:48:58.851Z,0.00
2018-09-29T02:49:58.814Z,0.00
2018-09-29T02:50:58.931Z,0.00
2018-09-29T02:51:58.887Z,0.00
2018-09-29T02:52:58.925Z,0.00
2018-09-29T02:53:58.854Z,0.00
2018-09-29T02:54:58.762Z,0.00
2018-09-29T02:55:58.758Z,0.00
2018-09-29T02:56:58.816Z,0.00
2018-09-29T02:57:58.758Z,0.00
2018-09-29T02:58:58.713Z,0.00
2018-09-29T02:59:58.752Z,0.00
2018-09-29T03:00:58.685Z,0.00
2018-09-29T03:01:58.742Z,0.00
2018-09-29T03:02:58.700Z,0.00
2018-09-29T03:03:58.696Z,0.00
2018-09-29T03:04:58.705Z,0.00
2018-09-29T03:05:58.642Z,0.00
2018-09-29T03:06:58.669Z,0.00
2018-09-29T03:07:58.671Z,0.00
2018-09-29T03:08:58.620Z,0.00
2018-09-29T03:09:58.608Z,0.00
2018-09-29T03:10:58.590Z,0.00
2018-09-29T03:11:58.619Z,0.00
2018-09-29T03:12:58.554Z,0.00
2018-09-29T03:13:58.587Z,0.00
2018-09-29T03:14:58.541Z,0.00
2018-09-29T03:15:58.602Z,0.00
2018-09-29T03:16:58.511Z,0.00
2018-09-29T03:17:58.517Z,0.00
2018-09-29T03:18:58.484Z,0.00
2018-09-29T03:19:58.545Z,0.00
2018-09-29T03:20:58.494Z,0.00
2018-09-29T03:21:58.472Z,0.00
2018-09-29T03:22:58.474Z,0.00
2018-09-29T03:24:07.524Z,0.00
2018-09-29T03:24:58.439Z,0.00
2018-09-29T03:25:58.554Z,0.00
2018-09-29T03:26:58.611Z,0.00
2018-09-29T03:27:58.585Z,0.00
2018-09-29T03:28:58.399Z,0.00
2018-09-29T03:29:58.398Z,0.00
2018-09-29T03:30:58.406Z,0.00
2018-09-29T03:31:58.504Z,0.00
2018-09-29T03:32:58.379Z,0.00
2018-09-29T03:33:58.368Z,0.00
2018-09-29T03:34:58.311Z,0.00
2018-09-29T03:36:06.440Z,0.00
2018-09-29T03:36:58.471Z,0.00
2018-09-29T03:37:58.425Z,0.00
2018-09-29T03:38:58.329Z,0.00
2018-09-29T03:39:58.412Z,0.00
2018-09-29T03:40:58.294Z,0.00
2018-09-29T03:41:58.247Z,0.00
2018-09-29T03:43:06.441Z,0.00
2018-09-29T03:43:58.357Z,0.00
2018-09-29T03:44:58.308Z,0.00
2018-09-29T03:45:58.327Z,0.00
2018-09-29T03:46:58.322Z,0.00
2018-09-29T03:49:12.440Z,0.00
2018-09-29T03:50:12.384Z,0.00
2018-09-29T03:51:12.364Z,0.00
2018-09-29T03:52:12.200Z,0.00
2018-09-29T03:53:12.178Z,0.00
2018-09-29T03:54:12.209Z,0.00
2018-09-29T03:55:12.159Z,0.00
2018-09-29T03:56:12.163Z,0.00
2018-09-29T03:57:12.168Z,0.00
2018-09-29T03:58:12.157Z,0.00
2018-09-29T03:59:12.121Z,0.00
2018-09-29T04:00:12.096Z,0.00
2018-09-29T04:01:12.100Z,0.00
2018-09-29T04:02:21.180Z,0.00
2018-09-29T04:03:12.216Z,0.00
2018-09-29T04:04:12.167Z,0.00
2018-09-29T04:05:12.215Z,0.00
2018-09-29T04:06:12.111Z,0.00
2018-09-29T04:07:12.026Z,0.00
2018-09-29T04:08:12.091Z,0.00
2018-09-29T04:09:12.053Z,0.00
2018-09-29T04:10:12.011Z,0.00
2018-09-29T04:11:12.000Z,0.00
2018-09-29T04:12:11.969Z,0.00
2018-09-29T04:13:12.021Z,0.00
2018-09-29T04:14:11.962Z,0.00
2018-09-29T04:15:11.958Z,0.00
2018-09-29T04:16:11.932Z,0.00
2018-09-29T04:17:11.963Z,0.00
2018-09-29T04:18:11.895Z,0.00
2018-09-29T04:19:11.926Z,0.00
2018-09-29T04:20:11.890Z,0.00
2018-09-29T04:21:20.715Z,0.00
2018-09-29T04:22:11.851Z,0.00
2018-09-29T04:23:11.893Z,0.00
2018-09-29T04:24:11.877Z,0.00
2018-09-29T04:25:12.033Z,0.00
2018-09-29T04:26:11.853Z,0.00
2018-09-29T04:27:11.879Z,0.00
2018-09-29T04:28:11.808Z,0.00
2018-09-29T04:29:11.773Z,0.00
2018-09-29T04:30:11.775Z,0.00
2018-09-29T04:31:11.765Z,0.00
2018-09-29T04:32:11.748Z,0.00
2018-09-29T04:33:11.743Z,0.00
2018-09-29T04:34:11.775Z,0.00
2018-09-29T04:35:11.705Z,0.00
2018-09-29T04:36:11.769Z,0.00
2018-09-29T04:37:11.687Z,0.00
2018-09-29T04:38:11.712Z,0.00
2018-09-29T04:39:20.789Z,0.00
2018-09-29T04:40:11.937Z,0.00
2018-09-29T04:41:11.684Z,0.00
2018-09-29T04:42:11.798Z,0.00
2018-09-29T04:43:11.717Z,0.00
2018-09-29T04:44:11.607Z,0.00
2018-09-29T04:45:11.593Z,0.00
2018-09-29T04:46:11.610Z,0.00
2018-09-29T04:47:11.576Z,0.00
2018-09-29T04:48:11.584Z,0.00
2018-09-29T04:49:11.685Z,0.00
2018-09-29T04:50:11.554Z,0.00
2018-09-29T04:51:11.528Z,0.00
2018-09-29T04:52:11.547Z,0.00
2018-09-29T04:53:11.538Z,0.00
2018-09-29T04:54:11.515Z,0.00
2018-09-29T04:55:11.487Z,0.00
2018-09-29T04:56:11.506Z,0.00
2018-09-29T04:57:20.741Z,0.00
2018-09-29T04:58:11.614Z,0.00
2018-09-29T04:59:11.578Z,0.00
2018-09-29T05:00:11.545Z,0.00
2018-09-29T05:01:11.550Z,0.00
2018-09-29T05:02:19.506Z,0.00
2018-09-29T05:03:11.533Z,0.00
2018-09-29T05:04:11.557Z,0.00
2018-09-29T05:05:11.528Z,0.00
2018-09-29T05:06:11.581Z,0.00
2018-09-29T05:07:11.403Z,0.00
2018-09-29T05:08:11.382Z,0.00
2018-09-29T05:09:11.326Z,0.00
2018-09-29T05:10:11.435Z,0.00
2018-09-29T05:11:11.388Z,0.00
2018-09-29T05:12:11.351Z,0.00
2018-09-29T05:13:11.285Z,0.00
2018-09-29T05:14:11.321Z,0.00
2018-09-29T05:15:19.015Z,0.00
2018-09-29T05:16:11.272Z,0.00
2018-09-29T05:17:11.480Z,0.00
2018-09-29T05:18:11.340Z,0.00
2018-09-29T05:19:11.486Z,0.00
2018-09-29T05:20:11.241Z,0.00
2018-09-29T05:21:11.260Z,0.00
2018-09-29T05:22:11.241Z,0.00
2018-09-29T05:23:11.176Z,0.00
2018-09-29T05:24:11.215Z,0.00
2018-09-29T05:25:11.243Z,0.00
2018-09-29T05:26:11.177Z,0.00
2018-09-29T05:27:11.127Z,0.00
2018-09-29T05:28:11.113Z,0.00
2018-09-29T05:29:11.188Z,0.00
2018-09-29T05:30:11.107Z,0.00
2018-09-29T05:31:11.093Z,0.00
2018-09-29T05:32:11.120Z,0.00
2018-09-29T05:33:18.977Z,0.00
2018-09-29T05:34:11.256Z,0.00
2018-09-29T05:35:11.066Z,0.00
2018-09-29T05:36:11.284Z,0.00
2018-09-29T05:37:11.011Z,0.00
2018-09-29T05:38:11.186Z,0.00
2018-09-29T05:39:11.186Z,0.00
2018-09-29T05:40:11.073Z,0.00
2018-09-29T05:41:10.986Z,0.00
2018-09-29T05:42:10.988Z,0.00
2018-09-29T05:43:11.028Z,0.00
2018-09-29T05:44:10.951Z,0.00
2018-09-29T05:45:10.956Z,0.00
2018-09-29T05:46:10.950Z,0.00
2018-09-29T05:47:10.914Z,0.00
2018-09-29T05:48:10.973Z,0.00
2018-09-29T05:49:10.896Z,0.00
2018-09-29T05:50:10.873Z,0.00
2018-09-29T05:51:10.930Z,0.00
2018-09-29T05:52:10.842Z,0.00
2018-09-29T05:53:10.914Z,0.00
2018-09-29T05:54:10.824Z,0.00
2018-09-29T05:55:10.851Z,0.00
2018-09-29T05:56:10.824Z,5.62
2018-09-29T05:57:10.811Z,5.62
2018-09-29T05:58:10.816Z,5.62
2018-09-29T05:59:10.764Z,5.62
2018-09-29T06:00:10.848Z,5.62
2018-09-29T06:01:10.739Z,5.62
2018-09-29T06:02:10.813Z,5.62
2018-09-29T06:03:10.719Z,5.62
2018-09-29T06:04:10.722Z,5.62
2018-09-29T06:05:10.765Z,5.62
2018-09-29T06:06:10.746Z,5.62
2018-09-29T06:07:10.753Z,5.62
2018-09-29T06:08:10.720Z,5.62
2018-09-29T06:09:10.722Z,5.62
2018-09-29T06:10:10.691Z,5.62
2018-09-29T06:11:10.630Z,5.62
2018-09-29T06:12:18.757Z,5.62
2018-09-29T06:13:10.834Z,5.62
2018-09-29T06:14:10.775Z,5.62
2018-09-29T06:15:10.638Z,5.62
2018-09-29T06:16:10.764Z,5.62
2018-09-29T06:17:10.622Z,5.62
2018-09-29T06:18:10.581Z,5.62
2018-09-29T06:19:10.613Z,5.62
2018-09-29T06:20:10.554Z,5.62
2018-09-29T06:21:10.557Z,5.62
2018-09-29T06:22:10.507Z,5.62
2018-09-29T06:23:10.537Z,5.62
2018-09-29T06:24:10.507Z,5.62
2018-09-29T06:25:10.535Z,5.62
2018-09-29T06:26:10.523Z,5.62
2018-09-29T06:27:10.521Z,5.62
2018-09-29T06:28:10.440Z,5.62
2018-09-29T06:29:10.530Z,5.62
2018-09-29T06:30:19.284Z,5.62
2018-09-29T06:31:10.503Z,5.62
2018-09-29T06:32:10.502Z,11.25
2018-09-29T06:33:10.556Z,11.25
2018-09-29T06:34:10.487Z,11.25
2018-09-29T06:35:10.368Z,11.25
2018-09-29T06:36:10.393Z,11.25
2018-09-29T06:37:10.421Z,11.25
2018-09-29T06:38:10.326Z,11.25
2018-09-29T06:39:10.358Z,11.25
2018-09-29T06:40:10.310Z,11.25
2018-09-29T06:41:10.365Z,11.25
2018-09-29T06:42:10.285Z,11.25
2018-09-29T06:43:10.292Z,11.25
2018-09-29T06:44:10.302Z,11.25
2018-09-29T06:45:10.261Z,11.25
2018-09-29T06:46:10.264Z,11.25
2018-09-29T06:47:10.248Z,11.25
2018-09-29T06:48:10.243Z,11.25
2018-09-29T06:49:10.267Z,11.25
2018-09-29T06:51:24.701Z,11.25
2018-09-29T06:52:24.507Z,11.25
2018-09-29T06:53:24.624Z,11.25
2018-09-29T06:54:24.373Z,11.25
2018-09-29T06:55:24.238Z,11.25
2018-09-29T06:56:24.255Z,11.25
2018-09-29T06:57:24.215Z,11.25
2018-09-29T06:58:24.357Z,16.88
2018-09-29T06:59:24.194Z,16.88
2018-09-29T07:00:24.166Z,16.88
2018-09-29T07:01:24.195Z,22.50
2018-09-29T07:02:24.142Z,28.12
2018-09-29T07:03:24.168Z,61.88
2018-09-29T07:04:24.155Z,45.00
2018-09-29T07:05:24.109Z,16.88
2018-09-29T07:06:24.119Z,16.88
2018-09-29T07:07:24.088Z,16.88
2018-09-29T07:08:24.085Z,16.88
2018-09-29T07:09:33.698Z,16.88
2018-09-29T07:10:24.387Z,16.88
2018-09-29T07:11:24.237Z,16.88
2018-09-29T07:12:24.220Z,16.88
2018-09-29T07:13:24.340Z,16.88
2018-09-29T07:14:24.167Z,16.88
2018-09-29T07:15:24.021Z,22.50
2018-09-29T07:16:24.065Z,33.75
2018-09-29T07:17:24.031Z,45.00
2018-09-29T07:18:23.982Z,39.38
2018-09-29T07:19:23.962Z,33.75
2018-09-29T07:20:23.999Z,39.38
2018-09-29T07:21:23.998Z,50.62
2018-09-29T07:22:23.951Z,56.25
2018-09-29T07:23:23.996Z,45.00
2018-09-29T07:24:23.917Z,67.50
2018-09-29T07:25:23.947Z,106.88
2018-09-29T07:26:23.890Z,225.00
2018-09-29T07:27:23.999Z,309.38
2018-09-29T07:28:31.935Z,562.50
2018-09-29T07:29:24.102Z,399.38
2018-09-29T07:30:24.190Z,123.75
2018-09-29T07:31:23.856Z,101.25
2018-09-29T07:32:23.927Z,135.00
2018-09-29T07:33:23.849Z,140.62
2018-09-29T07:34:23.795Z,101.25
2018-09-29T07:35:23.806Z,95.62
2018-09-29T07:36:23.799Z,84.38
2018-09-29T07:37:23.935Z,129.38
2018-09-29T07:38:23.756Z,73.12
2018-09-29T07:39:23.791Z,50.62
2018-09-29T07:40:23.738Z,45.00
2018-09-29T07:41:23.708Z,67.50
2018-09-29T07:42:23.755Z,67.50
2018-09-29T07:43:23.697Z,146.25
2018-09-29T07:44:23.705Z,399.38
2018-09-29T07:45:23.699Z,382.50
2018-09-29T07:46:23.652Z,281.25
2018-09-29T07:47:23.672Z,129.38
2018-09-29T07:48:31.881Z,163.12
2018-09-29T07:49:23.665Z,191.25
2018-09-29T07:50:23.692Z,438.75
2018-09-29T07:51:23.673Z,416.25
2018-09-29T07:52:23.625Z,174.38
2018-09-29T07:53:23.701Z,73.12
2018-09-29T07:54:23.770Z,67.50
2018-09-29T07:55:23.589Z,67.50
2018-09-29T07:56:23.550Z,67.50
2018-09-29T07:57:23.555Z,67.50
2018-09-29T07:58:23.578Z,67.50
2018-09-29T07:59:23.513Z,67.50
2018-09-29T08:00:23.502Z,67.50
2018-09-29T08:01:23.516Z,67.50
2018-09-29T08:02:23.468Z,67.50
2018-09-29T08:03:23.476Z,67.50
2018-09-29T08:04:23.450Z,67.50
2018-09-29T08:05:23.437Z,56.25
2018-09-29T08:06:23.522Z,56.25
2018-09-29T08:07:23.416Z,56.25
2018-09-29T08:08:23.417Z,56.25
2018-09-29T08:09:23.413Z,50.62
2018-09-29T08:10:23.389Z,50.62
2018-09-29T08:11:31.004Z,61.88
2018-09-29T08:12:23.435Z,56.25
2018-09-29T08:13:23.380Z,56.25
2018-09-29T08:14:23.380Z,50.62
2018-09-29T08:15:23.497Z,50.62
2018-09-29T08:16:23.402Z,50.62
2018-09-29T08:17:23.367Z,61.88
2018-09-29T08:18:23.325Z,61.88
2018-09-29T08:19:23.350Z,61.88
2018-09-29T08:20:23.268Z,61.88
2018-09-29T08:21:23.265Z,67.50
2018-09-29T08:22:23.293Z,61.88
2018-09-29T08:23:23.241Z,61.88
2018-09-29T08:24:23.305Z,61.88
2018-09-29T08:25:23.209Z,61.88
2018-09-29T08:26:23.205Z,56.25
2018-09-29T08:27:23.187Z,56.25
2018-09-29T08:28:23.217Z,61.88
2018-09-29T08:29:23.166Z,61.88
2018-09-29T08:30:32.820Z,61.88
2018-09-29T08:31:23.180Z,61.88
2018-09-29T08:32:23.346Z,56.25
2018-09-29T08:33:23.157Z,56.25
2018-09-29T08:34:23.310Z,56.25
2018-09-29T08:35:23.103Z,56.25
2018-09-29T08:36:23.161Z,50.62
2018-09-29T08:37:23.330Z,56.25
2018-09-29T08:38:23.126Z,56.25
2018-09-29T08:39:23.081Z,50.62
2018-09-29T08:40:23.131Z,45.00
2018-09-29T08:41:23.179Z,45.00
2018-09-29T08:42:23.345Z,50.62
2018-09-29T08:43:23.100Z,45.00
2018-09-29T08:44:23.055Z,45.00
2018-09-29T08:45:22.986Z,45.00
2018-09-29T08:46:23.021Z,39.38
2018-09-29T08:47:22.962Z,39.38
2018-09-29T08:48:22.954Z,39.38
2018-09-29T08:49:32.158Z,33.75
2018-09-29T08:50:22.999Z,33.75
2018-09-29T08:51:23.091Z,33.75
2018-09-29T08:52:23.019Z,33.75
2018-09-29T08:53:22.991Z,33.75
2018-09-29T08:54:23.054Z,33.75
2018-09-29T08:55:22.981Z,33.75
2018-09-29T08:56:22.913Z,33.75
2018-09-29T08:57:22.937Z,33.75
2018-09-29T08:58:22.972Z,33.75
2018-09-29T08:59:22.871Z,28.12
2018-09-29T09:00:22.833Z,28.12
2018-09-29T09:01:22.864Z,28.12
2018-09-29T09:02:22.812Z,28.12
2018-09-29T09:03:22.787Z,33.75
2018-09-29T09:04:22.821Z,33.75
2018-09-29T09:05:22.760Z,33.75
2018-09-29T09:06:22.748Z,33.75
2018-09-29T09:07:22.797Z,28.12
2018-09-29T09:08:31.974Z,28.12
2018-09-29T09:09:22.826Z,28.12
2018-09-29T09:10:22.742Z,28.12
2018-09-29T09:11:22.915Z,28.12
2018-09-29T09:12:22.719Z,28.12
2018-09-29T09:13:22.721Z,22.50
2018-09-29T09:14:22.769Z,22.50
2018-09-29T09:15:22.693Z,28.12
2018-09-29T09:16:22.683Z,28.12
2018-09-29T09:17:22.784Z,28.12
2018-09-29T09:18:22.631Z,28.12
2018-09-29T09:19:22.653Z,28.12
2018-09-29T09:20:22.714Z,28.12
2018-09-29T09:21:22.675Z,28.12
2018-09-29T09:22:30.659Z,28.12
2018-09-29T09:23:22.725Z,28.12
2018-09-29T09:24:22.630Z,28.12
2018-09-29T09:25:22.656Z,28.12
2018-09-29T09:26:22.526Z,28.12
2018-09-29T09:27:22.538Z,28.12
2018-09-29T09:28:22.534Z,28.12
2018-09-29T09:29:22.494Z,28.12
2018-09-29T09:30:22.581Z,28.12
2018-09-29T09:31:22.468Z,28.12
2018-09-29T09:32:22.463Z,28.12
2018-09-29T09:33:22.516Z,28.12
2018-09-29T09:34:22.434Z,28.12
2018-09-29T09:35:22.433Z,28.12
2018-09-29T09:36:22.416Z,28.12
2018-09-29T09:37:22.400Z,28.12
2018-09-29T09:38:22.391Z,28.12
2018-09-29T09:39:22.415Z,28.12
2018-09-29T09:40:22.392Z,33.75
2018-09-29T14:47:46.540Z,22.50
2018-09-29T14:48:46.802Z,22.50
2018-09-29T14:49:46.593Z,22.50
2018-09-29T14:50:46.561Z,22.50
2018-09-29T14:51:46.486Z,22.50
2018-09-29T14:52:46.442Z,22.50
2018-09-29T14:53:46.498Z,22.50
2018-09-29T14:54:46.420Z,22.50
2018-09-29T14:55:46.409Z,22.50
2018-09-29T14:56:46.423Z,22.50
2018-09-29T14:57:46.514Z,22.50
2018-09-29T14:58:46.381Z,22.50
2018-09-29T14:59:46.447Z,22.50
2018-09-29T15:00:46.376Z,22.50
2018-09-29T15:01:46.343Z,22.50
2018-09-29T15:02:46.333Z,16.88
2018-09-29T15:03:46.382Z,22.50
2018-09-29T15:04:46.313Z,16.88
2018-09-29T15:05:55.631Z,16.88
2018-09-29T15:06:46.516Z,16.88
2018-09-29T15:07:46.279Z,16.88
2018-09-29T15:08:46.462Z,16.88
2018-09-29T15:09:46.259Z,16.88
2018-09-29T15:10:46.257Z,16.88
2018-09-29T15:11:46.268Z,16.88
2018-09-29T15:12:46.245Z,16.88
2018-09-29T15:13:46.230Z,16.88
2018-09-29T15:14:46.201Z,16.88
2018-09-29T15:15:46.201Z,16.88
2018-09-29T15:16:46.269Z,16.88
2018-09-29T15:17:46.244Z,16.88
2018-09-29T15:18:46.283Z,16.88
2018-09-29T15:19:46.163Z,16.88
2018-09-29T15:20:46.133Z,16.88
2018-09-29T15:21:46.143Z,16.88
2018-09-29T15:22:46.126Z,16.88
2018-09-29T15:23:46.098Z,16.88
2018-09-29T15:24:46.133Z,16.88
2018-09-29T15:25:54.087Z,16.88
2018-09-29T15:26:46.112Z,16.88
2018-09-29T15:27:46.070Z,16.88
2018-09-29T15:28:46.106Z,16.88
2018-09-29T15:29:46.033Z,16.88
2018-09-29T15:30:46.177Z,16.88
2018-09-29T15:31:46.113Z,16.88
2018-09-29T15:32:46.026Z,16.88
2018-09-29T15:33:46.011Z,16.88
2018-09-29T15:34:46.002Z,16.88
2018-09-29T15:35:46.106Z,16.88
2018-09-29T15:36:45.961Z,16.88
2018-09-29T15:37:45.942Z,16.88
2018-09-29T15:38:45.956Z,16.88
2018-09-29T15:39:45.921Z,16.88
2018-09-29T15:40:45.928Z,16.88
2018-09-29T15:41:45.955Z,16.88
2018-09-29T15:42:46.053Z,16.88
2018-09-29T15:43:45.876Z,16.88
2018-09-29T15:44:53.622Z,16.88
2018-09-29T15:45:45.959Z,16.88
2018-09-29T15:46:45.899Z,16.88
2018-09-29T15:47:45.868Z,16.88
2018-09-29T15:48:45.974Z,16.88
2018-09-29T15:49:45.890Z,16.88
2018-09-29T15:50:45.819Z,16.88
2018-09-29T15:51:45.789Z,16.88
2018-09-29T15:52:45.833Z,16.88
2018-09-29T15:53:45.765Z,16.88
2018-09-29T15:54:45.756Z,16.88
2018-09-29T15:55:45.878Z,16.88
2018-09-29T15:56:45.771Z,16.88
2018-09-29T15:57:45.729Z,11.25
2018-09-29T15:58:45.727Z,11.25
2018-09-29T15:59:45.701Z,11.25
2018-09-29T16:00:45.709Z,11.25
2018-09-29T16:01:45.677Z,11.25
2018-09-29T16:02:45.667Z,11.25
2018-09-29T16:03:54.371Z,11.25
2018-09-29T16:04:45.707Z,11.25
2018-09-29T16:05:45.845Z,11.25
2018-09-29T16:06:45.698Z,11.25
2018-09-29T16:07:45.703Z,11.25
2018-09-29T16:08:45.636Z,11.25
2018-09-29T16:09:45.612Z,11.25
2018-09-29T16:10:45.620Z,11.25
2018-09-29T16:11:45.568Z,11.25
2018-09-29T16:12:45.556Z,11.25
2018-09-29T16:13:45.583Z,11.25
2018-09-29T16:14:45.610Z,11.25
2018-09-29T16:15:45.588Z,11.25
2018-09-29T16:16:45.651Z,11.25
2018-09-29T16:17:45.505Z,11.25
2018-09-29T16:18:45.523Z,11.25
2018-09-29T16:19:45.503Z,11.25
2018-09-29T16:20:45.466Z,11.25
2018-09-29T16:21:45.557Z,5.62
2018-09-29T16:22:53.371Z,5.62
2018-09-29T16:23:45.458Z,5.62
2018-09-29T16:24:45.421Z,5.62
2018-09-29T16:25:45.635Z,5.62
2018-09-29T16:26:45.406Z,5.62
2018-09-29T16:27:45.405Z,5.62
2018-09-29T16:28:45.469Z,5.62
2018-09-29T16:29:45.529Z,5.62
2018-09-29T16:30:45.436Z,5.62
2018-09-29T16:31:45.343Z,5.62
2018-09-29T16:32:45.378Z,5.62
2018-09-29T16:33:45.340Z,5.62
2018-09-29T16:34:45.439Z,0.00
2018-09-29T16:35:45.349Z,0.00
2018-09-29T16:36:45.289Z,0.00
2018-09-29T16:37:45.276Z,0.00
2018-09-29T16:38:45.294Z,0.00
2018-09-29T16:39:45.272Z,0.00
2018-09-29T16:40:45.243Z,0.00
2018-09-29T16:41:45.275Z,0.00
2018-09-29T16:42:53.402Z,0.00
2018-09-29T16:43:45.310Z,0.00
2018-09-29T16:44:45.403Z,0.00
2018-09-29T16:45:45.279Z,0.00
2018-09-29T16:46:45.356Z,0.00
2018-09-29T16:47:45.195Z,0.00
2018-09-29T16:48:45.203Z,0.00
2018-09-29T16:49:45.146Z,0.00
2018-09-29T16:50:45.131Z,0.00
2018-09-29T16:51:45.176Z,0.00
2018-09-29T16:52:45.186Z,0.00
2018-09-29T16:53:45.142Z,0.00
2018-09-29T16:54:45.094Z,0.00
2018-09-29T16:55:45.076Z,0.00
2018-09-29T16:56:45.118Z,0.00
2018-09-29T16:57:45.086Z,0.00
2018-09-29T16:58:45.197Z,0.00
2018-09-29T16:59:45.119Z,0.00
2018-09-29T17:00:45.027Z,0.00
2018-09-29T17:01:52.912Z,0.00
2018-09-29T17:02:45.025Z,0.00
2018-09-29T17:03:45.205Z,0.00
2018-09-29T17:04:45.248Z,0.00
2018-09-29T17:05:45.151Z,0.00
2018-09-29T17:06:45.089Z,0.00
2018-09-29T17:07:44.948Z,0.00
2018-09-29T17:08:44.934Z,0.00
2018-09-29T17:09:44.984Z,0.00
2018-09-29T17:10:44.991Z,0.00
2018-09-29T17:11:44.992Z,0.00
2018-09-29T17:12:44.893Z,0.00
2018-09-29T17:13:44.877Z,0.00
2018-09-29T17:14:44.960Z,0.00
2018-09-29T17:15:44.949Z,0.00
2018-09-29T17:16:44.962Z,0.00
2018-09-29T17:17:44.843Z,0.00
2018-09-29T17:18:44.823Z,0.00
2018-09-29T17:19:44.812Z,0.00
2018-09-29T17:20:44.832Z,0.00
2018-09-29T17:21:54.340Z,0.00
2018-09-29T17:22:44.818Z,0.00
2018-09-29T17:23:45.063Z,0.00
2018-09-29T17:24:44.803Z,0.00
2018-09-29T17:25:44.788Z,0.00
2018-09-29T17:26:44.822Z,0.00
2018-09-29T17:27:44.745Z,0.00
2018-09-29T17:28:44.711Z,0.00
2018-09-29T17:29:44.724Z,0.00
2018-09-29T17:30:44.689Z,0.00
2018-09-29T17:31:44.710Z,0.00
2018-09-29T17:32:44.692Z,0.00
2018-09-29T17:33:44.675Z,0.00
2018-09-29T17:34:44.648Z,0.00
2018-09-29T17:35:44.634Z,0.00
2018-09-29T17:36:44.630Z,0.00
2018-09-29T17:37:44.638Z,0.00
2018-09-29T17:38:44.711Z,0.00
2018-09-29T17:39:44.621Z,0.00
2018-09-29T17:40:44.582Z,0.00
2018-09-29T17:41:44.597Z,0.00
2018-09-29T17:42:44.665Z,0.00
2018-09-29T17:43:44.654Z,0.00
2018-09-29T17:44:44.544Z,0.00
2018-09-29T17:45:44.609Z,0.00
2018-09-29T17:46:44.519Z,0.00
2018-09-29T17:47:44.506Z,0.00
2018-09-29T17:48:44.535Z,0.00
2018-09-29T17:49:44.483Z,0.00
2018-09-29T17:50:44.468Z,0.00
2018-09-29T17:51:44.491Z,0.00
2018-09-29T17:52:44.498Z,0.00
2018-09-29T17:53:44.436Z,0.00
2018-09-29T17:54:44.505Z,0.00
2018-09-29T17:55:44.419Z,0.00
2018-09-29T17:56:44.421Z,0.00
2018-09-29T17:57:44.646Z,0.00
2018-09-29T17:58:44.383Z,0.00
2018-09-29T17:59:52.393Z,0.00
2018-09-29T18:00:44.370Z,0.00
2018-09-29T18:01:44.368Z,0.00
2018-09-29T18:02:44.417Z,0.00
2018-09-29T18:03:44.329Z,0.00
2018-09-29T18:04:44.332Z,0.00
2018-09-29T18:05:44.410Z,0.00
2018-09-29T18:06:44.317Z,0.00
2018-09-29T18:07:44.580Z,0.00
2018-09-29T18:08:44.445Z,0.00
2018-09-29T18:09:44.419Z,0.00
2018-09-29T18:10:44.249Z,0.00
2018-09-29T18:11:44.237Z,0.00
2018-09-29T18:12:52.304Z,0.00
2018-09-29T18:13:44.227Z,0.00
2018-09-29T18:14:44.401Z,0.00
2018-09-29T18:15:44.451Z,0.00
2018-09-29T18:16:44.256Z,0.00